createdAt,value
2023-05-05T00:01:10.254Z,79.95
2023-05-05T00:03:14.999Z,78.58
2023-05-05T00:05:18.497Z,79.24
2023-05-05T00:07:21.326Z,77.32
2023-05-05T00:09:24.399Z,79.37
2023-05-05T00:11:27.379Z,80.79
2023-05-05T00:13:31.913Z,80.74
2023-05-05T00:15:34.798Z,79.99
2023-05-05T00:17:37.734Z,79.61
2023-05-05T00:19:41.273Z,80.35
2023-05-05T00:21:44.123Z,79.51
2023-05-05T00:23:47.208Z,80.14
2023-05-05T00:25:50.269Z,79.78
2023-05-05T00:27:53.093Z,81.97
2023-05-05T00:29:57.605Z,81.08
2023-05-05T00:32:00.498Z,80.57
2023-05-05T00:34:03.446Z,79.43
2023-05-05T00:36:06.797Z,80.16
2023-05-05T00:38:09.937Z,78.95
2023-05-05T00:40:13.600Z,79.70
2023-05-05T00:42:16.808Z,81.52
2023-05-05T00:44:37.371Z,80.68
2023-05-05T00:46:43.575Z,82.27
2023-05-05T00:48:47.388Z,81.80
2023-05-05T00:50:50.419Z,81.22
2023-05-05T00:52:56.036Z,81.26
2023-05-05T00:54:59.033Z,80.94
2023-05-05T00:57:02.640Z,83.70
2023-05-05T00:59:05.559Z,84.35
2023-05-05T01:01:08.643Z,84.57
2023-05-05T01:03:15.676Z,85.41
2023-05-05T01:05:19.863Z,84.83
2023-05-05T01:07:31.777Z,85.35
2023-05-05T01:09:39.550Z,85.69
2023-05-05T01:11:51.935Z,84.74
2023-05-05T01:14:03.895Z,85.57
2023-05-05T01:16:12.817Z,84.75
2023-05-05T01:18:25.698Z,83.98
2023-05-05T01:20:36.560Z,82.69
2023-05-05T01:22:45.200Z,81.59
2023-05-05T01:25:18.210Z,82.46
2023-05-05T01:27:41.757Z,83.37
2023-05-05T01:30:02.546Z,84.63
2023-05-05T01:32:10.040Z,84.09
2023-05-05T01:34:17.239Z,84.17
2023-05-05T01:36:24.586Z,83.34
2023-05-05T01:38:35.158Z,83.99
2023-05-05T01:40:42.832Z,83.81
2023-05-05T01:42:46.871Z,82.64
2023-05-05T01:44:52.506Z,82.53
2023-05-05T01:46:55.088Z,83.61
2023-05-05T01:49:00.138Z,82.63
2023-05-05T01:51:05.705Z,81.51
2023-05-05T01:53:10.414Z,81.73
2023-05-05T01:55:16.398Z,82.06
2023-05-05T01:57:21.864Z,81.10
2023-05-05T01:59:25.909Z,81.46
2023-05-05T02:01:30.779Z,82.55
2023-05-05T02:03:36.642Z,82.82
2023-05-05T02:05:43.140Z,81.90
2023-05-05T02:07:47.100Z,82.05
2023-05-05T02:09:51.524Z,83.23
2023-05-05T02:11:55.954Z,84.45
2023-05-05T02:14:01.646Z,85.24
2023-05-05T02:16:06.641Z,85.27
2023-05-05T02:18:11.338Z,85.46
2023-05-05T02:20:16.580Z,85.80
2023-05-05T02:22:20.970Z,86.49
2023-05-05T02:24:24.511Z,85.95
2023-05-05T02:26:30.688Z,86.45
2023-05-05T02:28:41.032Z,88.44
2023-05-05T02:30:45.198Z,89.01
2023-05-05T02:32:55.605Z,87.65
2023-05-05T02:35:09.820Z,87.37
2023-05-05T02:37:20.400Z,86.68
2023-05-05T02:39:33.320Z,87.17
2023-05-05T02:41:43.240Z,87.41
2023-05-05T02:43:58.340Z,88.46
2023-05-05T02:46:02.476Z,87.89
2023-05-05T02:48:07.520Z,86.54
2023-05-05T02:50:16.344Z,86.76
2023-05-05T02:52:28.199Z,86.86
2023-05-05T02:54:33.461Z,87.00
2023-05-05T02:56:43.378Z,86.67
2023-05-05T02:58:52.308Z,86.40
2023-05-05T03:01:05.832Z,86.63
2023-05-05T03:03:18.112Z,86.00
2023-05-05T03:05:25.623Z,86.22
2023-05-05T03:07:38.550Z,85.28
2023-05-05T03:09:52.273Z,88.56
2023-05-05T03:12:01.375Z,87.78
2023-05-05T03:14:09.346Z,88.51
2023-05-05T03:16:13.701Z,88.59
2023-05-05T03:18:20.704Z,88.36
2023-05-05T03:20:30.937Z,88.70
2023-05-05T03:22:38.924Z,89.52
2023-05-05T03:24:52.025Z,89.48
2023-05-05T03:26:59.035Z,89.82
2023-05-05T03:29:08.397Z,89.24
2023-05-05T03:31:15.656Z,89.16
2023-05-05T03:33:19.265Z,89.04
2023-05-05T03:35:23.444Z,88.48
2023-05-05T03:37:26.520Z,88.69
2023-05-05T03:39:29.482Z,88.95
2023-05-05T03:41:34.873Z,87.30
2023-05-05T03:43:40.030Z,87.21
2023-05-05T03:45:43.376Z,87.02
2023-05-05T03:47:47.124Z,87.67
2023-05-05T03:49:50.090Z,87.63
2023-05-05T03:51:53.783Z,89.19
2023-05-05T03:53:56.813Z,88.81
2023-05-05T03:55:59.746Z,89.63
2023-05-05T03:58:04.215Z,89.24
2023-05-05T04:00:11.153Z,89.10
2023-05-05T04:02:18.597Z,88.77
2023-05-05T04:04:23.086Z,88.75
2023-05-05T04:06:26.714Z,88.64
2023-05-05T04:08:29.968Z,88.08
2023-05-05T04:10:32.889Z,86.64
2023-05-05T04:12:36.811Z,86.50
2023-05-05T04:14:41.190Z,86.56
2023-05-05T04:16:45.353Z,85.73
2023-05-05T04:18:48.346Z,85.12
2023-05-05T04:20:51.531Z,85.45
2023-05-05T04:22:54.530Z,85.77
2023-05-05T04:24:58.869Z,85.80
2023-05-05T04:27:02.616Z,84.80
2023-05-05T04:29:06.582Z,86.77
2023-05-05T04:31:11.357Z,86.62
2023-05-05T04:33:17.489Z,87.36
2023-05-05T04:35:22.597Z,87.28
2023-05-05T04:37:26.241Z,87.52
2023-05-05T04:39:29.848Z,87.91
2023-05-05T04:41:33.230Z,87.04
2023-05-05T04:43:36.402Z,86.81
2023-05-05T04:45:39.374Z,85.99
2023-05-05T04:47:44.057Z,85.17
2023-05-05T04:49:47.525Z,84.84
2023-05-05T04:51:50.359Z,84.80
2023-05-05T04:53:53.421Z,85.70
2023-05-05T04:55:56.485Z,86.42
2023-05-05T04:57:59.543Z,85.43
2023-05-05T05:00:05.131Z,85.50
2023-05-05T05:02:08.700Z,84.71
2023-05-05T05:04:14.123Z,85.05
2023-05-05T05:06:16.980Z,84.05
2023-05-05T05:08:19.855Z,83.03
2023-05-05T05:10:22.976Z,83.73
2023-05-05T05:12:25.892Z,81.66
2023-05-05T05:14:29.103Z,81.47
2023-05-05T05:16:32.215Z,82.09
2023-05-05T05:18:35.404Z,82.62
2023-05-05T05:20:39.991Z,84.47
2023-05-05T05:22:43.790Z,82.91
2023-05-05T05:24:52.550Z,83.33
2023-05-05T05:26:55.849Z,81.37
2023-05-05T05:28:58.708Z,79.63
2023-05-05T05:31:01.799Z,78.28
2023-05-05T05:33:05.275Z,76.39
2023-05-05T05:35:08.806Z,76.04
2023-05-05T05:37:13.940Z,75.39
2023-05-05T05:39:17.414Z,73.39
2023-05-05T05:41:20.432Z,71.23
2023-05-05T05:43:23.433Z,74.02
2023-05-05T05:45:26.470Z,69.91
2023-05-05T05:47:29.578Z,66.12
2023-05-05T05:49:33.105Z,66.12
2023-05-05T05:51:37.300Z,63.39
2023-05-05T05:53:41.614Z,63.12
2023-05-05T05:55:46.850Z,66.42
2023-05-05T05:57:50.583Z,62.20
2023-05-05T05:59:54.333Z,60.66
2023-05-05T06:01:57.965Z,56.96
2023-05-05T06:04:01.899Z,57.67
2023-05-05T06:06:05.526Z,58.48
2023-05-05T06:08:08.823Z,58.44
2023-05-05T06:10:26.427Z,58.24
2023-05-05T06:12:34.688Z,56.20
2023-05-05T06:14:38.579Z,56.46
2023-05-05T06:16:41.724Z,55.25
2023-05-05T06:18:48.727Z,54.60
2023-05-05T06:20:52.693Z,54.93
2023-05-05T06:22:58.474Z,52.91
2023-05-05T06:25:02.915Z,54.65
2023-05-05T06:27:07.280Z,53.05
2023-05-05T06:29:12.225Z,53.37
2023-05-05T06:31:15.490Z,52.36
2023-05-05T06:33:18.465Z,51.35
2023-05-05T06:35:22.627Z,51.24
2023-05-05T06:37:25.613Z,51.99
2023-05-05T06:39:28.395Z,49.35
2023-05-05T06:41:31.325Z,52.32
2023-05-05T06:43:35.973Z,48.53
2023-05-05T06:45:43.977Z,50.01
2023-05-05T06:47:47.011Z,49.09
2023-05-05T06:49:50.124Z,46.93
2023-05-05T06:51:53.016Z,43.66
2023-05-05T06:53:55.985Z,44.33
2023-05-05T06:55:59.118Z,42.17
2023-05-05T06:58:02.102Z,44.83
2023-05-05T07:00:11.564Z,42.09
2023-05-05T07:02:14.582Z,41.12
2023-05-05T07:04:17.678Z,40.26
2023-05-05T07:06:20.716Z,42.24
2023-05-05T07:08:23.648Z,43.44
2023-05-05T07:10:28.123Z,43.04
2023-05-05T07:12:31.560Z,41.15
2023-05-05T07:14:34.617Z,44.58
2023-05-05T07:16:39.069Z,41.98
2023-05-05T07:18:41.940Z,41.74
2023-05-05T07:20:45.231Z,40.22
2023-05-05T07:22:48.087Z,41.95
2023-05-05T07:24:53.506Z,41.25
2023-05-05T07:26:56.081Z,41.36
2023-05-05T07:28:59.559Z,39.75
2023-05-05T07:31:02.672Z,42.95
2023-05-05T07:33:07.164Z,40.99
2023-05-05T07:35:10.795Z,40.97
2023-05-05T07:37:13.918Z,40.82
2023-05-05T07:39:18.750Z,40.53
2023-05-05T07:41:21.701Z,38.15
2023-05-05T07:43:24.730Z,39.18
2023-05-05T07:45:29.206Z,39.69
2023-05-05T07:47:32.340Z,36.32
2023-05-05T07:49:36.954Z,39.05
2023-05-05T07:51:39.996Z,38.40
2023-05-05T07:53:43.307Z,38.13
2023-05-05T07:55:46.692Z,39.38
2023-05-05T07:57:50.115Z,39.09
2023-05-05T07:59:53.076Z,37.96
2023-05-05T08:01:55.999Z,39.52
2023-05-05T08:03:59.067Z,37.37
2023-05-05T08:06:11.342Z,36.65
2023-05-05T08:08:14.404Z,38.15
2023-05-05T08:10:17.298Z,39.14
2023-05-05T08:12:20.188Z,37.73
2023-05-05T08:14:23.381Z,35.29
2023-05-05T08:16:26.475Z,33.74
2023-05-05T08:18:29.417Z,34.78
2023-05-05T08:20:32.613Z,34.76
2023-05-05T08:22:36.997Z,34.83
2023-05-05T08:24:39.907Z,33.86
2023-05-05T08:26:42.868Z,34.62
2023-05-05T08:28:47.016Z,35.40
2023-05-05T08:30:51.106Z,34.04
2023-05-05T08:32:54.399Z,34.34
2023-05-05T08:34:57.488Z,33.76
2023-05-05T08:37:00.421Z,35.54
2023-05-05T08:39:04.971Z,33.87
2023-05-05T08:41:10.326Z,32.48
2023-05-05T08:43:13.220Z,30.87
2023-05-05T08:45:16.531Z,31.27
2023-05-05T08:47:20.866Z,33.72
2023-05-05T08:49:25.776Z,33.19
2023-05-05T08:51:33.739Z,35.66
2023-05-05T08:53:47.565Z,34.14
2023-05-05T08:55:52.905Z,34.63
2023-05-05T08:57:56.991Z,36.19
2023-05-05T09:00:01.832Z,34.85
2023-05-05T09:02:07.640Z,33.15
2023-05-05T09:04:11.361Z,33.32
2023-05-05T09:06:14.468Z,33.99
2023-05-05T09:08:18.224Z,33.08
2023-05-05T09:10:21.530Z,36.12
2023-05-05T09:12:30.426Z,33.57
2023-05-05T09:16:53.368Z,31.72
2023-05-05T09:19:03.669Z,32.00
2023-05-05T09:21:20.272Z,31.91
2023-05-05T09:23:23.615Z,30.74
2023-05-05T09:25:26.650Z,31.16
2023-05-05T09:27:31.345Z,31.76
2023-05-05T09:29:34.369Z,31.58
2023-05-05T09:31:38.133Z,30.17
2023-05-05T09:33:41.137Z,30.78
2023-05-05T09:35:51.885Z,30.61
2023-05-05T09:37:55.032Z,29.09
2023-05-05T09:40:03.453Z,29.80
2023-05-05T09:42:06.504Z,32.41
2023-05-05T09:44:11.790Z,32.26
2023-05-05T09:46:15.104Z,31.58
2023-05-05T09:48:26.103Z,31.46
2023-05-05T09:50:31.230Z,31.24
2023-05-05T09:52:34.307Z,30.76
2023-05-05T09:54:37.355Z,32.94
2023-05-05T09:56:40.832Z,31.25
2023-05-05T09:58:43.972Z,30.94
2023-05-05T10:00:48.497Z,30.06
2023-05-05T10:02:51.628Z,32.17
2023-05-05T10:05:06.484Z,30.24
2023-05-05T10:07:19.130Z,30.09
2023-05-05T10:09:22.175Z,28.91
2023-05-05T10:11:25.276Z,30.90
2023-05-05T10:13:29.632Z,32.04
2023-05-05T10:15:32.509Z,31.17
2023-05-05T10:18:02.312Z,29.99
2023-05-05T10:20:11.122Z,28.90
2023-05-05T10:22:14.588Z,31.70
2023-05-05T10:24:26.341Z,29.28
2023-05-05T10:26:34.903Z,27.77
2023-05-05T10:28:44.484Z,27.67
2023-05-05T10:30:52.005Z,29.85
2023-05-05T10:33:17.400Z,28.65
2023-05-05T10:35:27.937Z,29.48
2023-05-05T10:37:31.418Z,27.28
2023-05-05T10:39:37.115Z,27.24
2023-05-05T10:41:40.094Z,28.05
2023-05-05T10:43:43.538Z,27.59
2023-05-05T10:45:46.822Z,26.73
2023-05-05T10:47:51.512Z,27.19
2023-05-05T10:50:02.821Z,29.07
2023-05-05T10:52:14.480Z,27.60
2023-05-05T10:54:23.638Z,27.53
2023-05-05T10:56:31.584Z,28.48
2023-05-05T10:58:46.894Z,25.73
2023-05-05T11:00:54.861Z,26.65
2023-05-05T11:03:22.588Z,24.56
2023-05-05T11:05:27.288Z,24.73
2023-05-05T11:09:33.572Z,24.84
2023-05-05T11:12:04.655Z,23.48
2023-05-05T11:14:23.095Z,25.53
2023-05-05T11:16:48.124Z,25.33
2023-05-05T11:18:51.307Z,24.98
2023-05-05T11:21:15.960Z,24.78
2023-05-05T11:23:25.032Z,23.92
2023-05-05T11:25:47.488Z,25.17
2023-05-05T11:28:08.844Z,25.31
2023-05-05T11:30:13.496Z,24.80
2023-05-05T11:32:16.546Z,24.21
2023-05-05T11:34:29.256Z,22.99
2023-05-05T11:36:41.285Z,22.69
2023-05-05T11:39:00.200Z,23.60
2023-05-05T11:41:12.597Z,23.83
2023-05-05T11:43:19.418Z,23.74
2023-05-05T11:45:24.051Z,22.33
2023-05-05T11:47:29.194Z,24.15
2023-05-05T11:49:33.395Z,23.36
2023-05-05T11:51:36.983Z,23.74
2023-05-05T11:53:44.756Z,25.25
2023-05-05T11:55:47.718Z,23.21
2023-05-05T11:57:50.955Z,22.42
2023-05-05T11:59:55.695Z,23.16
2023-05-05T12:01:58.915Z,22.92
2023-05-05T12:04:02.016Z,23.68
2023-05-05T12:06:05.972Z,23.49
2023-05-05T12:08:08.976Z,23.29
2023-05-05T12:10:13.606Z,22.82
2023-05-05T12:12:17.187Z,22.24
2023-05-05T12:14:21.273Z,22.50
2023-05-05T12:16:24.241Z,23.87
2023-05-05T12:18:27.220Z,22.20
2023-05-05T12:20:32.660Z,21.21
2023-05-05T12:22:35.265Z,23.77
2023-05-05T12:24:38.055Z,22.08
2023-05-05T12:26:42.810Z,21.24
2023-05-05T12:28:49.038Z,22.83
2023-05-05T12:30:59.218Z,22.07
2023-05-05T12:33:03.245Z,22.46
2023-05-05T12:35:08.126Z,20.56
2023-05-05T12:37:11.589Z,20.56
2023-05-05T12:39:14.477Z,22.65
2023-05-05T12:41:20.029Z,19.75
2023-05-05T12:43:32.056Z,23.89
2023-05-05T12:45:35.046Z,21.07
2023-05-05T12:47:38.724Z,20.49
2023-05-05T12:49:49.142Z,22.27
2023-05-05T12:51:56.759Z,21.66
2023-05-05T12:54:05.569Z,19.73
2023-05-05T12:56:29.439Z,21.97
2023-05-05T13:01:11.189Z,19.95
2023-05-05T13:03:20.524Z,20.88
2023-05-05T13:05:33.523Z,20.75
2023-05-05T13:07:37.103Z,19.38
2023-05-05T13:09:40.410Z,19.32
2023-05-05T13:11:43.545Z,22.53
2023-05-05T13:13:46.616Z,19.79
2023-05-05T13:15:49.591Z,21.54
2023-05-05T13:18:00.415Z,20.06
2023-05-05T13:20:04.146Z,21.94
2023-05-05T13:22:06.948Z,18.19
2023-05-05T13:24:23.536Z,19.60
2023-05-05T13:26:31.474Z,18.91
2023-05-05T13:28:34.458Z,20.00
2023-05-05T13:30:37.376Z,20.11
2023-05-05T13:32:40.317Z,20.80
2023-05-05T13:34:44.807Z,19.59
2023-05-05T13:36:47.749Z,20.54
2023-05-05T13:38:50.653Z,20.00
2023-05-05T13:40:54.071Z,22.15
2023-05-05T13:42:57.105Z,18.14
2023-05-05T13:45:00.027Z,19.66
2023-05-05T13:47:03.337Z,19.44
2023-05-05T13:49:06.408Z,16.81
2023-05-05T13:51:10.769Z,17.42
2023-05-05T13:53:13.779Z,18.98
2023-05-05T13:55:17.121Z,16.61
2023-05-05T13:57:19.968Z,16.87
2023-05-05T13:59:23.325Z,17.35
2023-05-05T14:01:26.496Z,18.73
2023-05-05T14:03:29.626Z,16.66
2023-05-05T14:05:33.829Z,17.90
2023-05-05T14:07:38.262Z,15.82
2023-05-05T14:09:41.229Z,19.19
2023-05-05T14:11:44.181Z,18.29
2023-05-05T14:13:47.778Z,20.05
2023-05-05T14:15:52.857Z,20.09
2023-05-05T14:17:55.916Z,20.54
2023-05-05T14:19:58.858Z,21.20
2023-05-05T14:22:01.852Z,20.77
2023-05-05T14:24:07.097Z,19.29
2023-05-05T14:26:10.192Z,21.06
2023-05-05T14:28:13.118Z,18.84
2023-05-05T14:30:16.277Z,20.57
2023-05-05T14:32:19.108Z,19.97
2023-05-05T14:34:22.188Z,18.43
2023-05-05T14:36:25.115Z,21.03
2023-05-05T14:38:28.092Z,17.93
2023-05-05T14:40:32.474Z,18.12
2023-05-05T14:42:35.439Z,19.54
2023-05-05T14:44:38.293Z,19.02
2023-05-05T14:46:41.745Z,20.58
2023-05-05T14:48:46.870Z,20.59
2023-05-05T14:50:50.295Z,21.12
2023-05-05T14:52:53.312Z,18.65
2023-05-05T14:54:56.209Z,21.09
2023-05-05T14:57:00.683Z,19.02
2023-05-05T14:59:03.858Z,19.41
2023-05-05T15:01:07.210Z,22.12
2023-05-05T15:03:10.275Z,21.21
2023-05-05T15:05:13.322Z,21.03
2023-05-05T15:07:16.271Z,21.84
2023-05-05T15:09:20.507Z,22.16
2023-05-05T15:11:23.535Z,22.05
2023-05-05T15:13:28.019Z,20.15
2023-05-05T15:15:31.320Z,19.69
2023-05-05T15:17:34.339Z,21.09
2023-05-05T15:19:37.706Z,20.97
2023-05-05T15:21:40.697Z,19.33
2023-05-05T15:23:43.688Z,20.57
2023-05-05T15:25:46.655Z,21.22
2023-05-05T15:27:49.817Z,20.70
2023-05-05T15:29:54.789Z,20.99
2023-05-05T15:31:57.981Z,20.60
2023-05-05T15:34:00.934Z,21.16
2023-05-05T15:36:04.222Z,22.60
2023-05-05T15:38:07.458Z,20.84
2023-05-05T15:40:11.297Z,22.69
2023-05-05T15:42:14.103Z,22.58
2023-05-05T15:44:17.515Z,21.93
2023-05-05T15:46:22.029Z,20.95
2023-05-05T15:48:25.146Z,21.37
2023-05-05T15:50:28.001Z,21.96
2023-05-05T15:52:30.995Z,20.76
2023-05-05T15:54:34.145Z,21.58
2023-05-05T15:56:37.223Z,23.20
2023-05-05T15:58:40.078Z,23.07
2023-05-05T16:00:43.069Z,23.17
2023-05-05T16:02:47.606Z,24.30
2023-05-05T16:04:50.813Z,23.20
2023-05-05T16:06:54.029Z,22.74
2023-05-05T16:08:58.968Z,22.28
2023-05-05T16:11:02.113Z,23.69
2023-05-05T16:13:05.116Z,24.87
2023-05-05T16:15:09.281Z,23.84
2023-05-05T16:17:12.372Z,23.95
2023-05-05T16:19:16.930Z,26.26
2023-05-05T16:21:20.215Z,26.28
2023-05-05T16:23:23.246Z,26.35
2023-05-05T16:25:26.196Z,26.24
2023-05-05T16:27:29.170Z,25.26
2023-05-05T16:29:32.245Z,29.18
2023-05-05T16:31:35.341Z,28.64
2023-05-05T16:33:43.896Z,28.88
2023-05-05T16:35:48.539Z,29.30
2023-05-05T16:37:52.803Z,30.33
2023-05-05T16:39:55.673Z,30.52
2023-05-05T16:41:58.740Z,31.83
2023-05-05T16:44:01.685Z,31.37
2023-05-05T16:46:05.026Z,31.33
2023-05-05T16:48:09.150Z,30.93
2023-05-05T16:50:12.291Z,31.98
2023-05-05T16:52:16.774Z,31.71
2023-05-05T16:54:19.799Z,32.03
2023-05-05T16:56:22.685Z,33.13
2023-05-05T16:58:25.916Z,33.66
2023-05-05T17:00:28.723Z,31.82
2023-05-05T17:02:32.006Z,33.30
2023-05-05T17:04:34.854Z,34.34
2023-05-05T17:06:37.924Z,35.00
2023-05-05T17:08:42.657Z,34.20
2023-05-05T17:10:46.538Z,35.44
2023-05-05T17:12:49.505Z,35.12
2023-05-05T17:14:52.494Z,36.17
2023-05-05T17:16:55.357Z,37.20
2023-05-05T17:18:58.354Z,37.43
2023-05-05T17:21:01.287Z,37.87
2023-05-05T17:23:05.290Z,37.50
2023-05-05T17:25:11.068Z,38.96
2023-05-05T17:27:14.343Z,38.63
2023-05-05T17:29:21.835Z,38.91
2023-05-05T17:31:24.819Z,38.81
2023-05-05T17:33:27.735Z,38.57
2023-05-05T17:35:30.743Z,40.14
2023-05-05T17:37:34.080Z,39.21
2023-05-05T17:39:37.005Z,38.47
2023-05-05T17:41:42.705Z,38.31
2023-05-05T17:43:45.663Z,37.46
2023-05-05T17:45:48.694Z,38.54
2023-05-05T17:47:51.859Z,39.50
2023-05-05T17:49:56.493Z,39.75
2023-05-05T17:51:59.638Z,40.77
2023-05-05T17:54:02.531Z,39.89
2023-05-05T17:56:08.581Z,42.89
2023-05-05T17:58:13.426Z,44.63
2023-05-05T18:00:17.027Z,46.85
2023-05-05T18:02:20.096Z,45.45
2023-05-05T18:04:23.198Z,46.46
2023-05-05T18:06:27.425Z,46.83
2023-05-05T18:08:30.514Z,47.16
2023-05-05T18:10:33.878Z,45.30
2023-05-05T18:12:37.264Z,47.39
2023-05-05T18:14:42.269Z,48.14
2023-05-05T18:16:50.948Z,47.12
2023-05-05T18:18:54.578Z,47.95
2023-05-05T18:20:58.164Z,48.71
2023-05-05T18:23:01.639Z,49.80
2023-05-05T18:25:07.981Z,48.37
2023-05-05T18:27:11.410Z,47.67
2023-05-05T18:29:16.307Z,47.98
2023-05-05T18:31:21.769Z,47.04
2023-05-05T18:33:24.595Z,47.31
2023-05-05T18:35:28.517Z,46.21
2023-05-05T18:37:31.908Z,47.01
2023-05-05T18:39:34.757Z,48.39
2023-05-05T18:41:37.700Z,48.84
2023-05-05T18:43:41.377Z,47.99
2023-05-05T18:45:44.291Z,48.28
2023-05-05T18:47:48.714Z,50.81
2023-05-05T18:49:51.713Z,50.50
2023-05-05T18:51:56.038Z,49.94
2023-05-05T18:53:59.055Z,51.45
2023-05-05T18:56:02.039Z,52.19
2023-05-05T18:58:04.989Z,47.84
2023-05-05T19:00:09.755Z,51.28
2023-05-05T19:02:14.792Z,50.57
2023-05-05T19:04:30.668Z,53.33
2023-05-05T19:06:34.727Z,54.12
2023-05-05T19:08:37.959Z,54.23
2023-05-05T19:10:42.071Z,54.52
2023-05-05T19:12:45.073Z,55.47
2023-05-05T19:14:48.020Z,55.73
2023-05-05T19:16:51.426Z,55.69
2023-05-05T19:18:58.905Z,56.82
2023-05-05T19:21:03.410Z,55.54
2023-05-05T19:23:07.372Z,56.16
2023-05-05T19:25:11.222Z,56.48
2023-05-05T19:27:16.567Z,55.97
2023-05-05T19:29:20.178Z,57.54
2023-05-05T19:31:27.870Z,59.63
2023-05-05T19:33:30.947Z,58.74
2023-05-05T19:35:33.839Z,58.66
2023-05-05T19:37:38.303Z,58.34
2023-05-05T19:39:43.403Z,59.54
2023-05-05T19:41:46.276Z,59.84
2023-05-05T19:43:50.278Z,59.83
2023-05-05T19:45:53.459Z,60.72
2023-05-05T19:47:57.126Z,59.68
2023-05-05T19:50:00.135Z,61.33
2023-05-05T19:52:03.627Z,61.71
2023-05-05T19:54:08.079Z,62.40
2023-05-05T19:56:11.911Z,61.31
2023-05-05T19:58:14.807Z,61.04
2023-05-05T20:00:18.682Z,61.55
2023-05-05T20:02:26.904Z,62.40
2023-05-05T20:04:29.863Z,62.57
2023-05-05T20:06:33.333Z,62.68
2023-05-05T20:08:36.223Z,63.48
2023-05-05T20:10:40.695Z,63.10
2023-05-05T20:12:49.320Z,63.77
2023-05-05T20:14:52.575Z,63.46
2023-05-05T20:16:55.433Z,63.29
2023-05-05T20:18:58.390Z,63.15
2023-05-05T20:21:02.407Z,62.81
2023-05-05T20:23:05.332Z,62.54
2023-05-05T20:25:09.264Z,64.84
2023-05-05T20:27:13.620Z,66.09
2023-05-05T20:29:16.646Z,66.58
2023-05-05T20:31:19.615Z,64.55
2023-05-05T20:33:22.507Z,65.24
2023-05-05T20:35:25.979Z,65.58
2023-05-05T20:37:28.805Z,66.52
2023-05-05T20:39:31.722Z,65.81
2023-05-05T20:41:36.524Z,65.08
2023-05-05T20:43:41.309Z,65.06
2023-05-05T20:45:44.593Z,64.30
2023-05-05T20:47:47.697Z,63.70
2023-05-05T20:49:52.606Z,66.00
2023-05-05T20:51:55.730Z,65.44
2023-05-05T20:53:58.680Z,66.38
2023-05-05T20:56:01.741Z,65.67
2023-05-05T20:58:05.833Z,65.90
2023-05-05T21:00:11.672Z,66.24
2023-05-05T21:02:14.878Z,65.84
2023-05-05T21:04:17.878Z,65.47
2023-05-05T21:06:20.825Z,66.61
2023-05-05T21:08:23.866Z,67.83
2023-05-05T21:10:26.912Z,68.63
2023-05-05T21:12:30.555Z,69.34
2023-05-05T21:14:33.655Z,68.32
2023-05-05T21:16:38.211Z,66.92
2023-05-05T21:18:41.048Z,66.57
2023-05-05T21:20:43.993Z,69.04
2023-05-05T21:22:46.872Z,70.51
2023-05-05T21:24:49.855Z,69.57
2023-05-05T21:26:52.796Z,69.91
2023-05-05T21:28:56.076Z,71.58
2023-05-05T21:31:19.887Z,71.53
2023-05-05T21:33:23.549Z,70.51
2023-05-05T21:35:26.407Z,71.57
2023-05-05T21:37:29.549Z,71.23
2023-05-05T21:39:35.686Z,72.05
2023-05-05T21:41:39.010Z,71.67
2023-05-05T21:43:42.147Z,71.26
2023-05-05T21:45:45.099Z,70.09
2023-05-05T21:47:47.972Z,71.37
2023-05-05T21:49:52.335Z,72.02
2023-05-05T21:51:55.173Z,69.19
2023-05-05T21:53:59.221Z,70.25
2023-05-05T21:56:02.165Z,69.52
2023-05-05T21:58:05.172Z,69.28
2023-05-05T22:00:09.430Z,69.22
2023-05-05T22:02:15.718Z,70.43
2023-05-05T22:04:18.688Z,70.17
2023-05-05T22:06:23.338Z,68.68
2023-05-05T22:08:27.149Z,69.50
2023-05-05T22:10:30.113Z,69.79
2023-05-05T22:12:33.179Z,68.71
2023-05-05T22:14:36.623Z,69.50
2023-05-05T22:16:39.558Z,69.71
2023-05-05T22:18:42.568Z,68.56
2023-05-05T22:20:45.608Z,70.20
2023-05-05T22:22:50.185Z,70.64
2023-05-05T22:24:53.135Z,69.92
2023-05-05T22:26:57.640Z,71.00
2023-05-05T22:29:00.848Z,69.82
2023-05-05T22:31:03.904Z,68.97
2023-05-05T22:33:06.876Z,70.36
2023-05-05T22:35:10.458Z,69.71
2023-05-05T22:37:14.316Z,69.54
2023-05-05T22:39:18.977Z,69.29
2023-05-05T22:41:21.968Z,70.37
2023-05-05T22:43:24.932Z,71.36
2023-05-05T22:45:28.140Z,69.89
2023-05-05T22:47:31.334Z,69.47
2023-05-05T22:49:34.334Z,70.35
2023-05-05T22:51:38.206Z,69.11
2023-05-05T22:53:41.185Z,70.34
2023-05-05T22:55:45.979Z,69.20
2023-05-05T22:57:48.896Z,70.67
2023-05-05T22:59:51.968Z,71.18
2023-05-05T23:01:55.015Z,71.30
2023-05-05T23:03:57.991Z,71.25
2023-05-05T23:06:00.965Z,70.36
2023-05-05T23:08:04.090Z,70.60
2023-05-05T23:10:08.026Z,71.80
2023-05-05T23:12:12.440Z,70.28
2023-05-05T23:14:17.175Z,72.07
2023-05-05T23:16:20.318Z,71.66
2023-05-05T23:18:23.280Z,70.94
2023-05-05T23:20:26.501Z,69.98
2023-05-05T23:22:29.395Z,69.11
2023-05-05T23:24:32.467Z,68.70
2023-05-05T23:26:35.357Z,70.08
2023-05-05T23:28:39.769Z,69.66
2023-05-05T23:30:42.904Z,69.15
2023-05-05T23:32:46.275Z,70.27
2023-05-05T23:34:49.418Z,69.96
2023-05-05T23:36:52.440Z,68.73
2023-05-05T23:38:55.358Z,69.18
2023-05-05T23:40:58.269Z,69.33
2023-05-05T23:43:01.379Z,68.29
2023-05-05T23:45:06.672Z,68.52
2023-05-05T23:47:09.529Z,69.36
2023-05-05T23:49:12.678Z,69.13
2023-05-05T23:51:15.817Z,70.65
2023-05-05T23:53:18.743Z,69.26
2023-05-05T23:55:21.968Z,70.41
2023-05-05T23:57:25.003Z,70.34
2023-05-05T23:59:27.860Z,69.66
